createdAt,value
2018-06-16T00:00:40.119Z,19.46
2018-06-16T00:01:40.118Z,19.83
2018-06-16T00:02:40.129Z,19.33
2018-06-16T00:03:40.125Z,19.01
2018-06-16T00:04:40.121Z,18.58
2018-06-16T00:05:40.124Z,18.98
2018-06-16T00:06:40.128Z,19.33
2018-06-16T00:07:40.140Z,18.82
2018-06-16T00:08:40.173Z,18.76
2018-06-16T00:09:40.136Z,18.44
2018-06-16T00:10:40.137Z,18.86
2018-06-16T00:11:40.146Z,19.17
2018-06-16T00:12:40.133Z,19.33
2018-06-16T00:13:40.176Z,19.43
2018-06-16T00:14:40.148Z,19.48
2018-06-16T00:15:40.146Z,19.08
2018-06-16T00:16:40.177Z,19.02
2018-06-16T00:17:40.151Z,19.28
2018-06-16T00:18:40.151Z,19.06
2018-06-16T00:19:40.158Z,18.98
2018-06-16T00:20:40.158Z,19.01
2018-06-16T00:21:40.150Z,19.29
2018-06-16T00:22:40.163Z,19.24
2018-06-16T00:23:40.174Z,19.35
2018-06-16T00:24:40.166Z,19.36
2018-06-16T00:25:40.158Z,19.13
2018-06-16T00:26:40.165Z,18.67
2018-06-16T00:27:40.176Z,18.64
2018-06-16T00:28:40.172Z,19.05
2018-06-16T00:29:40.179Z,19.33
2018-06-16T00:30:40.172Z,19.06
2018-06-16T00:31:40.175Z,19.06
2018-06-16T00:32:40.183Z,19.10
2018-06-16T00:33:40.180Z,18.59
2018-06-16T00:34:40.195Z,18.31
2018-06-16T00:35:40.212Z,18.02
2018-06-16T00:36:40.223Z,17.99
2018-06-16T00:37:40.181Z,18.17
2018-06-16T00:38:40.186Z,18.18
2018-06-16T00:39:40.192Z,17.79
2018-06-16T00:40:40.189Z,17.88
2018-06-16T00:41:40.193Z,17.84
2018-06-16T00:42:40.194Z,18.22
2018-06-16T00:43:40.205Z,18.06
2018-06-16T00:44:40.213Z,17.74
2018-06-16T00:45:40.203Z,17.78
2018-06-16T00:46:40.205Z,18.13
2018-06-16T00:47:40.201Z,18.02
2018-06-16T00:48:40.214Z,17.79
2018-06-16T00:49:40.203Z,17.71
2018-06-16T00:50:40.207Z,18.24
2018-06-16T00:51:40.211Z,18.46
2018-06-16T00:52:40.230Z,18.42
2018-06-16T00:53:40.234Z,18.74
2018-06-16T00:54:40.224Z,18.59
2018-06-16T00:55:40.224Z,18.43
2018-06-16T00:56:40.230Z,18.28
2018-06-16T00:57:40.227Z,17.85
2018-06-16T00:58:40.225Z,18.33
2018-06-16T00:59:40.223Z,18.58
2018-06-16T01:00:40.228Z,18.19
2018-06-16T01:01:40.229Z,18.02
2018-06-16T01:02:40.228Z,17.94
2018-06-16T01:03:40.232Z,18.09
2018-06-16T01:04:40.242Z,18.13
2018-06-16T01:05:40.242Z,18.59
2018-06-16T01:06:40.231Z,18.22
2018-06-16T01:07:40.240Z,18.10
2018-06-16T01:08:40.243Z,17.76
2018-06-16T01:09:40.256Z,17.57
2018-06-16T01:10:40.242Z,17.87
2018-06-16T01:11:40.248Z,17.54
2018-06-16T01:12:40.264Z,17.51
2018-06-16T01:13:40.261Z,17.48
2018-06-16T01:14:40.245Z,17.47
2018-06-16T01:15:40.278Z,17.51
2018-06-16T01:16:40.289Z,17.59
2018-06-16T01:17:40.250Z,17.36
2018-06-16T01:18:40.251Z,17.15
2018-06-16T01:19:40.254Z,17.17
2018-06-16T01:20:40.256Z,17.15
2018-06-16T01:21:40.257Z,17.57
2018-06-16T01:22:40.260Z,17.43
2018-06-16T01:23:40.266Z,17.30
2018-06-16T01:24:40.262Z,17.46
2018-06-16T01:25:40.274Z,17.51
2018-06-16T01:26:40.267Z,17.81
2018-06-16T01:27:40.269Z,18.64
2018-06-16T01:28:40.272Z,18.49
2018-06-16T01:29:40.271Z,18.13
2018-06-16T01:30:40.306Z,17.76
2018-06-16T01:31:40.279Z,17.87
2018-06-16T01:32:40.353Z,17.82
2018-06-16T01:33:40.284Z,17.76
2018-06-16T01:34:40.272Z,17.70
2018-06-16T01:35:40.304Z,18.02
2018-06-16T01:36:40.295Z,18.50
2018-06-16T01:37:40.283Z,18.46
2018-06-16T01:38:40.312Z,18.59
2018-06-16T01:39:40.291Z,18.58
2018-06-16T01:40:40.285Z,18.54
2018-06-16T01:41:40.296Z,18.02
2018-06-16T01:42:40.293Z,18.06
2018-06-16T01:43:40.305Z,18.19
2018-06-16T01:44:40.290Z,17.76
2018-06-16T01:45:40.299Z,17.82
2018-06-16T01:46:40.292Z,17.92
2018-06-16T01:47:40.299Z,17.62
2018-06-16T01:48:40.325Z,17.57
2018-06-16T01:49:40.316Z,17.66
2018-06-16T01:50:40.307Z,17.30
2018-06-16T01:51:40.325Z,17.23
2018-06-16T01:52:40.312Z,16.95
2018-06-16T01:53:40.360Z,17.23
2018-06-16T01:54:40.324Z,16.93
2018-06-16T01:55:40.307Z,16.50
2018-06-16T01:56:40.306Z,16.52
2018-06-16T01:57:40.306Z,16.31
2018-06-16T01:58:40.307Z,16.53
2018-06-16T01:59:40.308Z,16.83
2018-06-16T02:00:40.312Z,16.86
2018-06-16T02:01:40.314Z,17.29
2018-06-16T02:02:40.315Z,17.14
2018-06-16T02:03:40.328Z,17.20
2018-06-16T02:04:40.355Z,17.30
2018-06-16T02:05:40.328Z,17.07
2018-06-16T02:06:40.318Z,16.85
2018-06-16T02:07:40.330Z,17.18
2018-06-16T02:08:40.329Z,17.26
2018-06-16T02:09:40.352Z,17.67
2018-06-16T02:10:40.320Z,17.51
2018-06-16T02:11:40.329Z,17.15
2018-06-16T02:12:40.339Z,17.06
2018-06-16T02:13:40.320Z,16.93
2018-06-16T02:14:40.318Z,17.17
2018-06-16T02:15:40.325Z,17.06
2018-06-16T02:16:40.325Z,16.99
2018-06-16T02:17:40.327Z,17.14
2018-06-16T02:18:40.320Z,16.90
2018-06-16T02:19:40.327Z,17.15
2018-06-16T02:20:40.329Z,16.85
2018-06-16T02:21:40.341Z,16.95
2018-06-16T02:22:40.340Z,17.03
2018-06-16T02:23:40.344Z,16.88
2018-06-16T02:24:40.364Z,16.75
2018-06-16T02:25:40.337Z,17.23
2018-06-16T02:26:40.342Z,16.98
2018-06-16T02:27:40.337Z,16.70
2018-06-16T02:28:49.027Z,16.56
2018-06-16T02:30:33.753Z,16.20
2018-06-16T02:31:33.792Z,16.33
2018-06-16T02:32:33.726Z,16.33
2018-06-16T02:33:33.742Z,16.92
2018-06-16T02:34:33.763Z,17.25
2018-06-16T02:35:33.752Z,17.85
2018-06-16T02:36:33.738Z,17.85
2018-06-16T02:37:33.736Z,18.04
2018-06-16T02:38:33.776Z,18.24
2018-06-16T02:39:33.734Z,18.31
2018-06-16T02:40:33.734Z,17.54
2018-06-16T02:41:33.746Z,17.23
2018-06-16T02:42:33.735Z,17.04
2018-06-16T02:43:33.732Z,17.10
2018-06-16T02:44:33.739Z,17.18
2018-06-16T02:45:33.733Z,17.11
2018-06-16T02:46:33.739Z,17.48
2018-06-16T02:47:33.740Z,17.63
2018-06-16T02:48:33.736Z,17.32
2018-06-16T02:49:33.742Z,16.90
2018-06-16T02:50:33.826Z,16.90
2018-06-16T02:51:33.779Z,16.56
2018-06-16T02:52:33.741Z,16.70
2018-06-16T02:53:33.785Z,16.58
2018-06-16T02:54:33.737Z,16.89
2018-06-16T02:55:33.749Z,16.77
2018-06-16T02:56:33.740Z,16.55
2018-06-16T02:57:33.745Z,16.62
2018-06-16T02:58:33.750Z,16.40
2018-06-16T02:59:33.740Z,16.55
2018-06-16T03:00:33.747Z,16.53
2018-06-16T03:01:33.745Z,16.60
2018-06-16T03:21:16.928Z,17.32
2018-06-16T03:22:16.903Z,17.48
2018-06-16T03:23:16.904Z,17.33
2018-06-16T03:24:16.898Z,17.35
2018-06-16T03:25:16.905Z,16.96
2018-06-16T03:26:16.903Z,16.96
2018-06-16T03:27:16.888Z,17.66
2018-06-16T03:28:16.891Z,17.70
2018-06-16T03:29:16.884Z,17.82
2018-06-16T03:30:16.881Z,17.71
2018-06-16T03:31:16.881Z,17.35
2018-06-16T03:32:16.873Z,17.23
2018-06-16T03:33:16.875Z,16.90
2018-06-16T03:34:16.877Z,16.89
2018-06-16T03:35:16.877Z,16.83
2018-06-16T03:36:16.876Z,16.93
2018-06-16T03:37:16.875Z,17.04
2018-06-16T03:38:16.881Z,17.14
2018-06-16T03:39:16.882Z,17.35
2018-06-16T03:40:25.515Z,17.22
2018-06-16T03:42:10.286Z,17.17
2018-06-16T03:43:10.281Z,17.11
2018-06-16T03:44:10.273Z,17.06
2018-06-16T03:45:10.292Z,17.15
2018-06-16T03:46:10.294Z,17.20
2018-06-16T03:47:10.332Z,17.18
2018-06-16T03:48:10.276Z,17.00
2018-06-16T03:49:10.276Z,16.96
2018-06-16T03:50:10.275Z,17.08
2018-06-16T03:51:10.276Z,17.55
2018-06-16T03:52:10.302Z,17.54
2018-06-16T03:53:10.299Z,17.57
2018-06-16T03:54:10.283Z,17.29
2018-06-16T03:55:10.276Z,17.30
2018-06-16T03:56:10.280Z,17.17
2018-06-16T03:57:10.282Z,16.96
2018-06-16T03:58:10.290Z,16.93
2018-06-16T03:59:10.293Z,16.81
2018-06-16T04:00:10.288Z,16.55
2018-06-16T04:01:10.287Z,17.11
2018-06-16T04:02:10.289Z,17.63
2018-06-16T04:03:10.288Z,17.63
2018-06-16T04:04:10.291Z,17.29
2018-06-16T04:05:10.286Z,17.62
2018-06-16T04:06:10.287Z,18.02
2018-06-16T04:07:10.282Z,18.25
2018-06-16T04:08:10.282Z,18.03
2018-06-16T04:09:10.287Z,17.78
2018-06-16T04:10:10.289Z,17.95
2018-06-16T04:11:10.294Z,17.63
2018-06-16T04:12:10.288Z,17.74
2018-06-16T04:13:10.303Z,17.41
2018-06-16T04:14:10.292Z,17.18
2018-06-16T04:15:10.293Z,16.89
2018-06-16T04:16:10.308Z,16.86
2018-06-16T04:17:10.293Z,17.40
2018-06-16T04:18:10.299Z,17.32
2018-06-16T04:19:10.304Z,17.18
2018-06-16T04:20:10.338Z,17.04
2018-06-16T04:21:10.320Z,17.25
2018-06-16T04:22:10.303Z,16.92
2018-06-16T04:23:10.305Z,16.83
2018-06-16T04:24:10.337Z,16.67
2018-06-16T04:25:10.312Z,16.88
2018-06-16T04:26:10.320Z,17.07
2018-06-16T04:27:10.301Z,17.06
2018-06-16T04:28:10.314Z,17.43
2018-06-16T04:29:10.315Z,17.64
2018-06-16T04:30:10.310Z,17.73
2018-06-16T04:31:10.304Z,17.84
2018-06-16T04:32:10.314Z,18.04
2018-06-16T04:33:10.316Z,17.40
2018-06-16T04:34:10.327Z,17.51
2018-06-16T04:35:10.317Z,17.47
2018-06-16T04:36:10.316Z,17.30
2018-06-16T04:37:10.326Z,17.35
2018-06-16T04:38:10.316Z,17.40
2018-06-16T04:39:10.359Z,17.76
2018-06-16T04:40:10.331Z,17.57
2018-06-16T04:41:10.317Z,17.69
2018-06-16T04:42:10.347Z,17.63
2018-06-16T04:43:10.324Z,17.94
2018-06-16T04:44:10.349Z,17.76
2018-06-16T04:45:10.320Z,18.15
2018-06-16T04:46:10.336Z,18.22
2018-06-16T04:47:10.326Z,17.81
2018-06-16T04:48:10.325Z,17.63
2018-06-16T04:49:10.324Z,17.95
2018-06-16T04:50:10.325Z,17.76
2018-06-16T04:51:10.328Z,17.70
2018-06-16T04:52:10.333Z,17.88
2018-06-16T04:53:10.338Z,17.79
2018-06-16T04:54:10.331Z,17.87
2018-06-16T04:55:10.329Z,17.76
2018-06-16T04:56:10.334Z,17.79
2018-06-16T04:57:10.337Z,17.70
2018-06-16T04:58:10.339Z,17.44
2018-06-16T04:59:10.345Z,17.33
2018-06-16T05:00:10.379Z,17.32
2018-06-16T05:01:10.344Z,17.26
2018-06-16T05:02:10.340Z,17.46
2018-06-16T05:03:10.362Z,17.33
2018-06-16T05:04:10.339Z,17.29
2018-06-16T05:05:10.344Z,17.29
2018-06-16T05:06:10.347Z,17.23
2018-06-16T05:07:10.346Z,17.18
2018-06-16T05:08:10.358Z,17.20
2018-06-16T05:09:10.364Z,17.30
2018-06-16T05:10:10.375Z,17.38
2018-06-16T05:11:10.357Z,17.43
2018-06-16T05:12:10.369Z,17.28
2018-06-16T05:13:10.361Z,17.38
2018-06-16T05:14:10.352Z,17.29
2018-06-16T05:15:10.352Z,17.51
2018-06-16T05:16:10.356Z,17.44
2018-06-16T05:17:10.358Z,17.40
2018-06-16T05:18:10.362Z,17.41
2018-06-16T05:19:10.368Z,17.55
2018-06-16T05:20:10.364Z,17.63
2018-06-16T05:21:10.365Z,17.85
2018-06-16T05:22:10.368Z,17.87
2018-06-16T05:23:10.385Z,17.76
2018-06-16T05:24:10.409Z,17.59
2018-06-16T05:25:10.379Z,17.74
2018-06-16T05:26:10.375Z,17.62
2018-06-16T05:27:10.379Z,17.54
2018-06-16T05:28:10.378Z,17.41
2018-06-16T05:29:10.383Z,17.44
2018-06-16T05:30:10.392Z,17.28
2018-06-16T05:31:10.388Z,17.73
2018-06-16T05:32:10.411Z,17.87
2018-06-16T05:33:10.383Z,18.04
2018-06-16T05:34:10.384Z,17.79
2018-06-16T05:35:10.388Z,17.70
2018-06-16T05:36:10.387Z,18.02
2018-06-16T05:37:10.389Z,17.84
2018-06-16T05:38:10.392Z,17.73
2018-06-16T05:39:10.403Z,17.66
2018-06-16T05:40:10.391Z,17.64
2018-06-16T05:41:10.401Z,17.59
2018-06-16T05:42:10.398Z,17.55
2018-06-16T05:43:10.396Z,17.73
2018-06-16T05:44:10.397Z,17.84
2018-06-16T05:46:42.535Z,18.17
2018-06-16T05:47:32.456Z,18.04
2018-06-16T05:48:32.444Z,17.99
2018-06-16T05:49:32.444Z,18.02
2018-06-16T05:50:32.449Z,18.43
2018-06-16T05:51:32.455Z,18.49
2018-06-16T05:52:32.450Z,18.52
2018-06-16T05:53:32.452Z,18.46
2018-06-16T05:54:32.463Z,18.52
2018-06-16T05:55:32.468Z,18.34
2018-06-16T05:56:32.468Z,18.17
2018-06-16T05:57:32.459Z,18.17
2018-06-16T05:58:32.473Z,18.03
2018-06-16T05:59:32.469Z,18.00
2018-06-16T06:00:32.540Z,18.13
2018-06-16T06:01:32.464Z,18.10
2018-06-16T06:02:32.466Z,18.07
2018-06-16T06:03:32.472Z,18.04
2018-06-16T06:04:32.484Z,18.21
2018-06-16T06:05:32.471Z,18.28
2018-06-16T06:06:32.475Z,18.42
2018-06-16T06:07:32.490Z,18.52
2018-06-16T06:08:32.489Z,18.46
2018-06-16T06:09:32.487Z,18.39
2018-06-16T06:10:32.526Z,18.40
2018-06-16T06:11:32.498Z,18.42
2018-06-16T06:12:32.516Z,18.43
2018-06-16T06:13:32.499Z,18.42
2018-06-16T06:14:32.491Z,18.40
2018-06-16T06:15:32.501Z,18.44
2018-06-16T06:16:32.509Z,18.33
2018-06-16T06:17:32.512Z,18.47
2018-06-16T06:18:32.500Z,18.50
2018-06-16T06:19:32.506Z,18.49
2018-06-16T06:20:32.512Z,18.47
2018-06-16T06:21:32.511Z,18.57
2018-06-16T06:22:32.515Z,18.59
2018-06-16T06:23:32.518Z,18.57
2018-06-16T06:24:32.556Z,18.55
2018-06-16T06:25:32.516Z,18.54
2018-06-16T06:26:32.521Z,18.67
2018-06-16T06:27:32.528Z,18.57
2018-06-16T06:28:32.537Z,18.58
2018-06-16T06:29:32.529Z,18.73
2018-06-16T06:30:32.533Z,18.76
2018-06-16T06:31:32.534Z,18.52
2018-06-16T06:32:32.542Z,18.43
2018-06-16T06:33:32.544Z,18.55
2018-06-16T06:34:32.539Z,18.68
2018-06-16T06:35:32.555Z,18.74
2018-06-16T06:36:32.552Z,18.84
2018-06-16T06:37:32.549Z,19.01
2018-06-16T06:38:32.553Z,19.10
2018-06-16T06:39:32.565Z,18.99
2018-06-16T06:40:32.584Z,19.10
2018-06-16T06:41:32.561Z,18.97
2018-06-16T06:42:32.564Z,19.01
2018-06-16T06:43:32.571Z,19.06
2018-06-16T06:44:32.566Z,19.05
2018-06-16T06:45:32.569Z,19.01
2018-06-16T06:46:32.577Z,19.10
2018-06-16T06:47:32.582Z,19.11
2018-06-16T06:48:32.590Z,19.24
2018-06-16T06:49:32.593Z,19.32
2018-06-16T06:50:32.585Z,19.25
2018-06-16T06:51:32.591Z,19.13
2018-06-16T06:52:32.592Z,19.21
2018-06-16T06:53:32.591Z,19.20
2018-06-16T06:54:32.589Z,19.15
2018-06-16T06:55:32.604Z,19.06
2018-06-16T06:56:32.602Z,19.14
2018-06-16T06:57:32.603Z,19.20
2018-06-16T06:58:32.608Z,19.43
2018-06-16T06:59:32.613Z,19.51
2018-06-16T07:00:32.617Z,19.51
2018-06-16T07:01:32.624Z,19.54
2018-06-16T07:02:32.633Z,19.51
2018-06-16T07:03:32.626Z,19.61
2018-06-16T07:04:32.629Z,19.70
2018-06-16T07:05:32.633Z,19.78
2018-06-16T07:06:32.641Z,19.70
2018-06-16T07:07:32.641Z,19.87
2018-06-16T07:08:32.658Z,19.86
2018-06-16T07:09:32.736Z,19.87
2018-06-16T07:10:32.674Z,19.93
2018-06-16T07:11:32.653Z,20.03
2018-06-16T07:12:32.707Z,20.09
2018-06-16T07:13:32.663Z,20.16
2018-06-16T07:14:32.671Z,20.30
2018-06-16T07:15:32.672Z,20.16
2018-06-16T07:16:32.677Z,20.18
2018-06-16T07:17:32.682Z,20.12
2018-06-16T07:18:32.685Z,20.15
2018-06-16T07:19:32.702Z,20.20
2018-06-16T07:20:32.818Z,20.23
2018-06-16T07:21:32.691Z,20.35
2018-06-16T07:22:32.709Z,20.25
2018-06-16T07:23:32.789Z,20.38
2018-06-16T07:24:32.701Z,20.53
2018-06-16T07:25:32.705Z,20.53
2018-06-16T07:26:32.711Z,20.34
2018-06-16T07:27:32.710Z,20.41
2018-06-16T07:28:32.717Z,20.51
2018-06-16T07:29:32.728Z,20.51
2018-06-16T07:30:32.733Z,20.34
2018-06-16T07:31:32.734Z,20.34
2018-06-16T07:32:32.744Z,20.38
2018-06-16T07:33:32.752Z,20.39
2018-06-16T07:34:32.744Z,20.43
2018-06-16T07:35:32.761Z,20.61
2018-06-16T07:36:32.759Z,20.56
2018-06-16T07:37:32.770Z,20.61
2018-06-16T07:38:32.768Z,20.65
2018-06-16T07:39:32.778Z,20.62
2018-06-16T07:40:32.786Z,20.65
2018-06-16T07:41:32.786Z,20.59
2018-06-16T07:42:32.784Z,20.62
2018-06-16T07:43:32.796Z,20.61
2018-06-16T07:44:32.805Z,20.71
2018-06-16T07:45:32.827Z,20.68
2018-06-16T07:46:32.816Z,20.74
2018-06-16T07:47:32.815Z,20.95
2018-06-16T07:48:32.850Z,21.01
2018-06-16T07:49:32.830Z,21.06
2018-06-16T07:50:32.825Z,21.06
2018-06-16T07:51:32.844Z,21.11
2018-06-16T07:52:32.935Z,21.06
2018-06-16T07:53:32.839Z,21.14
2018-06-16T07:54:32.851Z,21.16
2018-06-16T07:55:32.900Z,21.11
2018-06-16T07:56:32.903Z,21.11
2018-06-16T07:57:32.899Z,21.13
2018-06-16T07:58:32.896Z,21.20
2018-06-16T07:59:32.947Z,21.27
2018-06-16T08:00:32.905Z,21.36
2018-06-16T08:01:32.932Z,21.35
2018-06-16T08:02:32.893Z,21.46
2018-06-16T08:03:32.894Z,21.54
2018-06-16T08:04:32.939Z,21.63
2018-06-16T08:05:32.915Z,21.66
2018-06-16T08:06:32.973Z,21.76
2018-06-16T08:07:32.917Z,21.72
2018-06-16T08:08:32.966Z,21.82
2018-06-16T08:09:32.989Z,21.78
2018-06-16T08:10:32.981Z,21.88
2018-06-16T08:11:32.929Z,21.91
2018-06-16T08:12:32.940Z,21.95
2018-06-16T08:13:32.973Z,21.78
2018-06-16T08:14:32.973Z,21.92
2018-06-16T08:15:32.954Z,21.97
2018-06-16T08:17:54.045Z,21.72
2018-06-16T08:18:54.027Z,21.81
2018-06-16T08:19:54.045Z,21.69
2018-06-16T08:20:54.056Z,21.72
2018-06-16T08:21:54.041Z,21.78
2018-06-16T08:22:54.040Z,21.82
2018-06-16T08:23:54.057Z,21.95
2018-06-16T08:24:54.068Z,21.75
2018-06-16T08:25:54.085Z,21.76
2018-06-16T08:26:54.076Z,21.82
2018-06-16T08:27:54.100Z,21.72
2018-06-16T08:28:54.105Z,21.61
2018-06-16T08:29:54.091Z,21.48
2018-06-16T08:30:54.095Z,21.26
2018-06-16T08:31:54.086Z,21.20
2018-06-16T08:32:54.095Z,21.29
2018-06-16T08:33:54.139Z,21.23
2018-06-16T08:34:54.111Z,21.32
2018-06-16T08:35:54.117Z,21.48
2018-06-16T08:36:54.118Z,21.67
2018-06-16T08:37:54.127Z,21.67
2018-06-16T08:38:54.130Z,21.67
2018-06-16T08:39:54.134Z,21.79
2018-06-16T08:40:54.180Z,21.92
2018-06-16T08:41:54.164Z,21.90
2018-06-16T08:42:54.202Z,22.01
2018-06-16T08:43:54.153Z,21.98
2018-06-16T08:44:54.173Z,21.78
2018-06-16T08:45:54.192Z,21.81
2018-06-16T08:46:54.181Z,21.95
2018-06-16T08:47:54.182Z,21.92
2018-06-16T08:48:54.185Z,21.90
2018-06-16T08:49:54.194Z,21.88
2018-06-16T08:50:54.196Z,21.94
2018-06-16T08:51:54.225Z,21.91
2018-06-16T08:52:54.209Z,21.90
2018-06-16T08:53:54.211Z,21.76
2018-06-16T08:54:54.216Z,21.81
2018-06-16T08:55:54.263Z,21.95
2018-06-16T08:56:54.239Z,21.97
2018-06-16T08:57:54.238Z,22.07
2018-06-16T08:58:54.235Z,22.07
2018-06-16T08:59:54.244Z,22.07
2018-06-16T09:00:54.245Z,22.07
2018-06-16T09:01:54.277Z,21.97
2018-06-16T09:02:54.256Z,21.98
2018-06-16T09:03:54.260Z,22.06
2018-06-16T09:04:54.264Z,22.27
2018-06-16T09:05:54.279Z,22.47
2018-06-16T09:06:54.280Z,22.22
2018-06-16T09:07:54.308Z,22.23
2018-06-16T09:08:54.331Z,22.28
2018-06-16T09:09:54.305Z,22.44
2018-06-16T09:10:54.295Z,22.43
2018-06-16T09:11:54.304Z,22.44
2018-06-16T09:12:54.310Z,22.39
2018-06-16T09:13:54.312Z,22.32
2018-06-16T09:14:54.322Z,22.43
2018-06-16T09:15:54.372Z,22.44
2018-06-16T09:16:54.331Z,22.68
2018-06-16T09:17:54.337Z,22.69
2018-06-16T09:18:54.354Z,22.71
2018-06-16T09:19:54.352Z,22.69
2018-06-16T09:20:54.359Z,22.60
2018-06-16T09:21:54.371Z,22.62
2018-06-16T09:22:54.369Z,22.68
2018-06-16T09:23:54.375Z,22.68
2018-06-16T09:24:54.383Z,22.53
2018-06-16T09:25:54.388Z,22.60
2018-06-16T09:26:54.402Z,22.74
2018-06-16T09:27:54.419Z,22.71
2018-06-16T09:28:54.410Z,22.75
2018-06-16T09:29:54.404Z,22.84
2018-06-16T09:30:54.416Z,22.97
2018-06-16T09:31:54.422Z,23.02
2018-06-16T09:32:54.436Z,22.84
2018-06-16T09:33:54.454Z,22.82
2018-06-16T09:34:54.448Z,22.83
2018-06-16T09:35:54.460Z,22.90
2018-06-16T09:36:54.472Z,22.96
2018-06-16T09:37:54.470Z,22.84
2018-06-16T09:38:54.475Z,22.90
2018-06-16T09:39:54.470Z,22.89
2018-06-16T09:40:54.476Z,22.92
2018-06-16T09:41:54.516Z,22.99
2018-06-16T09:42:54.505Z,22.92
2018-06-16T09:43:54.520Z,22.84
2018-06-16T09:44:54.534Z,22.86
2018-06-16T09:45:54.498Z,23.05
2018-06-16T09:46:54.513Z,23.08
2018-06-16T09:47:54.514Z,23.15
2018-06-16T09:48:54.518Z,23.04
2018-06-16T09:49:54.555Z,22.86
2018-06-16T09:50:54.559Z,22.97
2018-06-16T09:51:54.547Z,23.08
2018-06-16T09:52:54.582Z,23.14
2018-06-16T09:53:54.556Z,22.93
2018-06-16T09:54:54.558Z,23.05
2018-06-16T09:55:54.562Z,23.04
2018-06-16T09:56:54.597Z,23.05
2018-06-16T09:57:54.601Z,23.27
2018-06-16T09:58:54.582Z,23.20
2018-06-16T09:59:54.586Z,23.27
2018-06-16T10:00:54.605Z,23.60
2018-06-16T10:01:54.610Z,23.60
2018-06-16T10:02:54.603Z,23.61
2018-06-16T10:03:54.608Z,23.47
2018-06-16T10:04:54.664Z,23.61
2018-06-16T10:05:54.625Z,23.57
2018-06-16T10:06:54.651Z,23.58
2018-06-16T10:07:54.648Z,23.24
2018-06-16T10:08:54.680Z,23.07
2018-06-16T10:09:54.653Z,23.11
2018-06-16T10:10:54.694Z,23.26
2018-06-16T10:11:54.671Z,23.08
2018-06-16T10:12:54.731Z,23.09
2018-06-16T10:13:54.676Z,23.09
2018-06-16T10:14:54.756Z,23.29
2018-06-16T10:15:54.968Z,23.42
2018-06-16T10:16:54.709Z,23.52
2018-06-16T10:17:54.695Z,23.60
2018-06-16T10:18:54.711Z,23.70
2018-06-16T10:19:54.727Z,23.64
2018-06-16T10:20:54.720Z,23.68
2018-06-16T10:21:54.724Z,23.80
2018-06-16T10:22:54.739Z,23.86
2018-06-16T10:23:54.760Z,23.77
2018-06-16T10:24:54.744Z,23.77
2018-06-16T10:25:54.752Z,23.43
2018-06-16T10:26:54.752Z,23.40
2018-06-16T10:27:54.765Z,23.61
2018-06-16T10:28:54.794Z,23.72
2018-06-16T10:29:54.800Z,23.58
2018-06-16T10:30:54.783Z,23.53
2018-06-16T10:31:54.787Z,23.31
2018-06-16T10:32:54.811Z,23.24
2018-06-16T10:33:54.805Z,23.39
2018-06-16T10:34:54.807Z,23.46
2018-06-16T10:35:54.824Z,23.43
2018-06-16T10:36:54.824Z,23.67
2018-06-16T10:37:54.835Z,23.46
2018-06-16T10:38:54.836Z,23.40
2018-06-16T10:39:54.873Z,23.47
2018-06-16T10:40:54.872Z,23.42
2018-06-16T10:41:54.864Z,23.55
2018-06-16T10:42:54.861Z,23.68
2018-06-16T10:43:54.863Z,23.83
2018-06-16T10:44:54.884Z,23.87
2018-06-16T10:45:54.924Z,23.72
2018-06-16T10:46:54.880Z,23.75
2018-06-16T10:47:54.883Z,24.01
2018-06-16T10:48:54.892Z,24.00
2018-06-16T10:49:54.895Z,24.07
2018-06-16T10:50:54.904Z,24.13
2018-06-16T10:51:54.935Z,23.85
2018-06-16T10:52:54.921Z,23.87
2018-06-16T10:53:54.930Z,23.83
2018-06-16T10:54:54.935Z,23.80
2018-06-16T10:55:54.943Z,23.92
2018-06-16T10:56:54.939Z,24.05
2018-06-16T10:57:54.964Z,24.02
2018-06-16T10:58:54.954Z,23.95
2018-06-16T10:59:54.973Z,24.13
2018-06-16T11:00:54.964Z,24.16
2018-06-16T11:01:54.975Z,24.38
2018-06-16T11:02:54.996Z,24.54
2018-06-16T11:03:55.005Z,24.44
2018-06-16T11:04:55.022Z,24.35
2018-06-16T11:05:55.027Z,24.52
2018-06-16T11:06:55.006Z,24.49
2018-06-16T11:07:55.015Z,24.75
2018-06-16T11:08:55.049Z,24.38
2018-06-16T11:09:55.032Z,24.27
2018-06-16T11:10:55.055Z,24.14
2018-06-16T11:11:55.079Z,24.05
2018-06-16T11:12:55.060Z,24.10
2018-06-16T11:13:55.056Z,24.12
2018-06-16T11:14:55.062Z,24.16
2018-06-16T11:15:55.106Z,24.59
2018-06-16T11:16:55.080Z,24.57
2018-06-16T11:17:55.086Z,24.61
2018-06-16T11:18:55.088Z,24.75
2018-06-16T11:19:55.097Z,24.71
2018-06-16T11:20:55.112Z,24.85
2018-06-16T11:21:55.114Z,24.90
2018-06-16T11:22:55.205Z,24.98
2018-06-16T11:23:55.186Z,24.82
2018-06-16T11:24:55.208Z,24.37
2018-06-16T11:25:55.184Z,24.47
2018-06-16T11:26:55.144Z,24.69
2018-06-16T11:27:55.219Z,24.97
2018-06-16T11:28:55.178Z,25.09
2018-06-16T11:29:55.182Z,25.00
2018-06-16T11:30:55.200Z,24.95
2018-06-16T11:31:55.179Z,24.98
2018-06-16T11:32:55.218Z,24.97
2018-06-16T11:33:55.194Z,25.09
2018-06-16T11:34:55.230Z,25.12
2018-06-16T11:35:55.282Z,25.17
2018-06-16T11:36:55.218Z,25.22
2018-06-16T11:37:55.217Z,25.24
2018-06-16T11:38:55.235Z,25.35
2018-06-16T11:39:55.237Z,25.30
2018-06-16T11:40:55.305Z,25.25
2018-06-16T11:41:55.266Z,25.09
2018-06-16T11:42:55.256Z,25.09
2018-06-16T11:43:55.268Z,25.12
2018-06-16T11:44:55.285Z,25.22
2018-06-16T11:45:55.293Z,25.24
2018-06-16T11:46:55.287Z,25.22
2018-06-16T11:47:55.305Z,25.22
2018-06-16T11:48:55.324Z,25.09
2018-06-16T11:49:55.314Z,25.19
2018-06-16T11:50:55.329Z,25.25
2018-06-16T11:51:55.331Z,25.24
2018-06-16T11:52:55.343Z,25.12
2018-06-16T11:53:55.342Z,25.30
2018-06-16T11:54:55.352Z,25.50
2018-06-16T11:55:55.365Z,25.61
2018-06-16T11:56:55.373Z,25.62
2018-06-16T11:57:55.372Z,25.47
2018-06-16T11:58:55.379Z,25.64
2018-06-16T11:59:55.391Z,25.46
2018-06-16T12:00:55.400Z,25.28
2018-06-16T12:01:55.452Z,25.30
2018-06-16T12:02:55.410Z,25.42
2018-06-16T12:03:55.446Z,25.49
2018-06-16T12:06:17.503Z,25.25
2018-06-16T12:07:17.462Z,25.53
2018-06-16T12:08:17.551Z,25.22
2018-06-16T12:09:17.528Z,25.34
2018-06-16T12:10:17.545Z,25.28
2018-06-16T12:11:17.513Z,25.39
2018-06-16T12:12:17.503Z,25.19
2018-06-16T12:13:17.517Z,25.62
2018-06-16T12:14:17.519Z,25.61
2018-06-16T12:15:17.530Z,25.50
2018-06-16T12:16:17.539Z,25.69
2018-06-16T12:17:17.541Z,25.61
2018-06-16T12:18:17.560Z,25.71
2018-06-16T12:19:17.558Z,25.84
2018-06-16T12:20:17.564Z,25.89
2018-06-16T12:21:17.635Z,25.86
2018-06-16T12:22:17.575Z,25.56
2018-06-16T12:23:17.600Z,25.57
2018-06-16T12:24:17.659Z,25.61
2018-06-16T12:25:17.636Z,25.56
2018-06-16T12:26:17.608Z,25.54
2018-06-16T12:27:17.621Z,25.71
2018-06-16T12:28:17.626Z,25.82
2018-06-16T12:29:17.636Z,25.64
2018-06-16T12:30:17.645Z,25.61
2018-06-16T12:31:17.650Z,25.64
2018-06-16T12:32:17.697Z,25.74
2018-06-16T12:33:17.662Z,25.77
2018-06-16T12:34:17.685Z,25.71
2018-06-16T12:35:17.687Z,25.90
2018-06-16T12:36:17.755Z,25.91
2018-06-16T12:37:17.726Z,25.82
2018-06-16T12:38:17.731Z,25.71
2018-06-16T12:39:17.747Z,25.83
2018-06-16T12:40:17.728Z,25.97
2018-06-16T12:41:17.754Z,25.99
2018-06-16T12:42:17.742Z,25.71
2018-06-16T12:43:17.758Z,25.83
2018-06-16T12:44:17.780Z,25.84
2018-06-16T12:45:17.774Z,25.80
2018-06-16T12:46:17.784Z,25.98
2018-06-16T12:47:17.788Z,25.98
2018-06-16T12:48:17.797Z,26.02
2018-06-16T12:49:17.846Z,26.12
2018-06-16T12:50:17.819Z,26.18
2018-06-16T12:51:17.851Z,26.15
2018-06-16T12:52:17.819Z,26.15
2018-06-16T12:53:17.828Z,26.08
2018-06-16T12:54:17.885Z,26.18
2018-06-16T12:55:17.854Z,26.21
2018-06-16T12:56:17.891Z,26.24
2018-06-16T12:57:17.944Z,25.98
2018-06-16T12:58:17.917Z,25.83
2018-06-16T12:59:17.926Z,25.86
2018-06-16T13:00:17.897Z,25.83
2018-06-16T13:01:17.891Z,25.83
2018-06-16T13:02:17.900Z,25.84
2018-06-16T13:03:17.928Z,25.56
2018-06-16T13:04:21.475Z,25.75
2018-06-16T13:05:17.982Z,25.86
2018-06-16T13:06:17.928Z,25.86
2018-06-16T13:07:17.980Z,25.77
2018-06-16T13:08:18.028Z,25.72
2018-06-16T13:09:17.994Z,25.84
2018-06-16T13:10:18.149Z,26.02
2018-06-16T13:11:18.060Z,26.22
2018-06-16T13:12:18.056Z,26.22
2018-06-16T13:13:17.994Z,25.98
2018-06-16T13:14:18.066Z,25.86
2018-06-16T13:15:18.174Z,26.02
2018-06-16T13:16:18.046Z,26.21
2018-06-16T13:17:18.030Z,26.43